createdAt,value
2022-10-17T00:00:05.590Z,30.10
2022-10-17T00:02:54.821Z,32.70
2022-10-17T00:05:21.496Z,55.80
2022-10-17T00:07:47.706Z,38.20
2022-10-17T00:10:14.285Z,104.60
2022-10-17T00:12:40.515Z,177.70
2022-10-17T00:15:07.439Z,95.00
2022-10-17T00:17:33.809Z,93.60
2022-10-17T00:20:01.788Z,174.30
2022-10-17T00:22:28.046Z,128.50
2022-10-17T00:24:54.314Z,87.80
2022-10-17T00:27:20.552Z,79.70
2022-10-17T00:29:51.286Z,74.90
2022-10-17T00:32:18.923Z,69.60
2022-10-17T00:34:45.417Z,51.60
2022-10-17T00:37:11.744Z,59.70
2022-10-17T00:39:38.405Z,50.30
2022-10-17T00:42:04.701Z,127.60
2022-10-17T00:44:30.872Z,135.10
2022-10-17T00:47:00.892Z,258.90
2022-10-17T00:49:31.838Z,280.00
2022-10-17T00:52:01.544Z,222.80
2022-10-17T00:54:36.579Z,239.40
2022-10-17T00:57:03.931Z,121.40
2022-10-17T00:59:33.438Z,36.40
2022-10-17T01:02:07.797Z,118.90
2022-10-17T01:04:36.239Z,58.30
2022-10-17T01:07:02.524Z,123.70
2022-10-17T01:09:29.613Z,115.00
2022-10-17T01:12:06.596Z,111.50
2022-10-17T01:14:49.717Z,102.70
2022-10-17T01:17:33.186Z,50.00
2022-10-17T01:20:15.417Z,103.20
2022-10-17T01:22:49.696Z,59.20
2022-10-17T01:25:47.947Z,49.90
2022-10-17T01:28:39.469Z,113.90
2022-10-17T01:31:08.845Z,127.90
2022-10-17T01:34:02.102Z,65.90
2022-10-17T01:36:44.283Z,65.90
2022-10-17T01:39:31.830Z,100.90
2022-10-17T01:42:05.904Z,115.00
2022-10-17T01:44:58.200Z,129.10
2022-10-17T01:47:30.014Z,87.00
2022-10-17T01:50:06.792Z,225.20
2022-10-17T01:52:40.762Z,135.80
2022-10-17T01:55:12.750Z,36.20
2022-10-17T01:57:48.617Z,147.10
2022-10-17T02:00:22.728Z,121.30
2022-10-17T02:02:58.028Z,71.00
2022-10-17T02:07:53.261Z,46.20
2022-10-17T02:10:39.016Z,57.10
2022-10-17T02:13:26.562Z,27.00
2022-10-17T02:15:59.450Z,44.70
2022-10-17T02:18:41.853Z,31.20
2022-10-17T02:21:18.600Z,58.00
2022-10-17T02:23:54.799Z,19.90
2022-10-17T02:26:32.337Z,29.30
2022-10-17T02:29:14.480Z,44.90
2022-10-17T02:31:51.075Z,37.60
2022-10-17T02:34:27.132Z,27.70
2022-10-17T02:37:00.080Z,44.50
2022-10-17T02:39:28.627Z,23.70
2022-10-17T02:42:01.092Z,23.40
2022-10-17T02:44:30.363Z,21.70
2022-10-17T02:47:38.925Z,23.40
2022-10-17T02:50:06.023Z,20.20
2022-10-17T02:52:55.014Z,21.10
2022-10-17T02:55:31.569Z,22.80
2022-10-17T02:58:16.244Z,31.60
2022-10-17T03:00:43.043Z,21.50
2022-10-17T03:03:30.813Z,21.10
2022-10-17T03:06:00.193Z,21.90
2022-10-17T03:08:26.598Z,21.50
2022-10-17T03:10:52.916Z,22.00
2022-10-17T03:13:21.158Z,28.00
2022-10-17T03:15:47.520Z,26.70
2022-10-17T03:18:13.797Z,24.90
2022-10-17T03:20:40.067Z,24.10
2022-10-17T03:23:06.583Z,36.00
2022-10-17T03:25:32.957Z,29.00
2022-10-17T03:28:00.876Z,31.60
2022-10-17T03:30:28.527Z,28.90
2022-10-17T03:32:57.748Z,27.70
2022-10-17T03:35:25.402Z,30.80
2022-10-17T03:37:52.202Z,35.40
2022-10-17T03:40:19.875Z,69.10
2022-10-17T03:42:46.204Z,91.60
2022-10-17T03:45:13.118Z,57.20
2022-10-17T03:47:39.678Z,36.70
2022-10-17T03:50:07.893Z,32.70
2022-10-17T03:52:35.520Z,36.60
2022-10-17T03:55:02.287Z,30.60
2022-10-17T03:57:29.724Z,31.40
2022-10-17T03:59:56.486Z,33.00
2022-10-17T04:02:24.720Z,28.30
2022-10-17T04:04:51.890Z,30.80
2022-10-17T04:07:18.249Z,31.80
2022-10-17T04:09:44.820Z,34.00
2022-10-17T04:12:14.117Z,34.90
2022-10-17T04:14:40.353Z,29.10
2022-10-17T04:17:06.809Z,27.20
2022-10-17T04:19:33.836Z,27.80
2022-10-17T04:22:02.471Z,30.30
2022-10-17T04:24:29.383Z,27.90
2022-10-17T04:27:18.846Z,28.20
2022-10-17T04:29:45.656Z,34.40
2022-10-17T04:32:24.984Z,28.50
2022-10-17T04:35:01.396Z,28.90
2022-10-17T04:37:29.502Z,41.00
2022-10-17T04:39:56.077Z,30.90
2022-10-17T04:42:22.765Z,30.00
2022-10-17T04:44:51.670Z,29.60
2022-10-17T04:47:18.256Z,29.20
2022-10-17T04:49:44.488Z,30.30
2022-10-17T04:52:10.885Z,48.40
2022-10-17T04:54:40.111Z,30.50
2022-10-17T04:57:08.739Z,29.20
2022-10-17T04:59:35.107Z,32.10
2022-10-17T05:02:17.354Z,28.10
2022-10-17T05:04:44.994Z,34.10
2022-10-17T05:07:11.941Z,30.30
2022-10-17T05:09:41.046Z,32.10
2022-10-17T05:12:10.310Z,29.10
2022-10-17T05:14:38.503Z,35.90
2022-10-17T05:17:04.775Z,29.30
2022-10-17T05:19:31.095Z,33.80
2022-10-17T05:21:57.624Z,30.10
2022-10-17T05:24:23.895Z,30.40
2022-10-17T05:26:51.232Z,35.80
2022-10-17T05:29:17.904Z,35.60
2022-10-17T05:31:48.151Z,34.50
2022-10-17T05:34:14.465Z,39.70
2022-10-17T05:36:41.165Z,40.60
2022-10-17T05:39:08.222Z,44.30
2022-10-17T05:41:35.602Z,33.60
2022-10-17T05:44:04.764Z,36.30
2022-10-17T05:46:39.395Z,33.40
2022-10-17T05:49:15.056Z,39.40
2022-10-17T05:51:53.219Z,64.90
2022-10-17T05:54:20.159Z,40.90
2022-10-17T05:56:54.437Z,43.40
2022-10-17T05:59:24.527Z,81.90
2022-10-17T06:01:57.796Z,89.10
2022-10-17T06:04:27.039Z,64.40
2022-10-17T06:06:55.497Z,76.70
2022-10-17T06:09:22.975Z,75.90
2022-10-17T06:11:51.668Z,80.20
2022-10-17T06:14:17.890Z,62.30
2022-10-17T06:16:44.148Z,67.00
2022-10-17T06:19:10.833Z,96.50
2022-10-17T06:21:38.222Z,79.70
2022-10-17T06:24:09.840Z,52.70
2022-10-17T06:26:39.348Z,65.80
2022-10-17T06:29:11.378Z,55.80
2022-10-17T06:31:50.168Z,44.00
2022-10-17T06:34:21.125Z,47.30
2022-10-17T06:36:53.949Z,42.30
2022-10-17T06:39:21.060Z,31.20
2022-10-17T06:41:56.456Z,42.10
2022-10-17T06:44:40.885Z,46.90
2022-10-17T06:47:33.628Z,36.20
2022-10-17T06:50:06.284Z,35.50
2022-10-17T06:52:51.237Z,40.30
2022-10-17T06:55:37.533Z,46.10
2022-10-17T06:58:17.344Z,49.80
2022-10-17T07:03:36.111Z,44.60
2022-10-17T07:06:07.068Z,43.60
2022-10-17T07:08:33.506Z,39.90
2022-10-17T07:11:13.963Z,39.20
2022-10-17T07:13:46.179Z,37.90
2022-10-17T07:16:16.577Z,47.30
2022-10-17T07:18:58.652Z,51.90
2022-10-17T07:21:35.196Z,44.20
2022-10-17T07:24:09.310Z,49.80
2022-10-17T07:26:43.331Z,47.90
2022-10-17T07:29:12.185Z,44.40
2022-10-17T07:31:48.230Z,48.90
2022-10-17T07:34:15.918Z,50.40
2022-10-17T07:36:45.344Z,53.10
2022-10-17T07:39:13.219Z,53.50
2022-10-17T07:41:40.023Z,50.40
2022-10-17T07:44:06.831Z,53.00
2022-10-17T07:46:45.635Z,53.40
2022-10-17T07:49:11.953Z,50.90
2022-10-17T07:51:39.759Z,54.20
2022-10-17T07:54:06.112Z,68.80
2022-10-17T07:56:32.609Z,60.50
2022-10-17T07:59:00.705Z,63.30
2022-10-17T08:01:29.421Z,50.00
2022-10-17T08:03:55.717Z,47.20
2022-10-17T08:06:21.942Z,57.80
2022-10-17T08:08:48.335Z,52.10
2022-10-17T08:11:15.296Z,57.80
2022-10-17T08:13:42.057Z,57.70
2022-10-17T08:16:11.428Z,59.00
2022-10-17T08:18:39.946Z,56.70
2022-10-17T08:21:07.672Z,59.50
2022-10-17T08:23:35.999Z,57.10
2022-10-17T08:26:05.221Z,57.70
2022-10-17T08:28:35.443Z,59.40
2022-10-17T08:31:08.250Z,62.80
2022-10-17T08:33:34.712Z,58.70
2022-10-17T08:36:01.977Z,61.60
2022-10-17T08:38:33.230Z,53.50
2022-10-17T08:41:05.993Z,55.50
2022-10-17T08:43:54.372Z,76.10
2022-10-17T08:46:21.109Z,73.20
2022-10-17T08:48:50.569Z,61.10
2022-10-17T08:51:23.740Z,73.60
2022-10-17T08:53:52.856Z,62.40
2022-10-17T08:56:43.948Z,53.40
2022-10-17T08:59:15.316Z,55.60
2022-10-17T09:01:44.971Z,65.50
2022-10-17T09:04:20.224Z,50.50
2022-10-17T09:06:55.400Z,50.50
2022-10-17T09:09:34.532Z,46.30
2022-10-17T09:12:13.101Z,46.80
2022-10-17T09:14:47.800Z,54.20
2022-10-17T09:17:32.833Z,87.30
2022-10-17T09:20:10.904Z,47.60
2022-10-17T09:22:44.222Z,54.20
2022-10-17T09:25:14.514Z,43.90
2022-10-17T09:27:45.805Z,51.40
2022-10-17T09:30:45.506Z,59.10
2022-10-17T09:33:42.361Z,45.30
2022-10-17T09:36:15.803Z,65.60
2022-10-17T09:38:47.147Z,41.50
2022-10-17T09:41:43.142Z,55.80
2022-10-17T09:44:19.563Z,44.60
2022-10-17T09:47:14.511Z,44.80
2022-10-17T09:49:43.748Z,51.40
2022-10-17T09:52:15.061Z,34.70
2022-10-17T09:54:57.696Z,43.50
2022-10-17T09:57:24.780Z,31.50
2022-10-17T10:00:07.493Z,28.40
2022-10-17T10:02:49.857Z,28.90
2022-10-17T10:05:19.295Z,24.80
2022-10-17T10:08:02.701Z,29.10
2022-10-17T10:10:31.002Z,26.30
2022-10-17T10:13:13.212Z,23.70
2022-10-17T10:15:42.076Z,28.90
2022-10-17T10:21:08.905Z,20.00
2022-10-17T10:23:39.316Z,19.30
2022-10-17T10:26:21.067Z,18.00
2022-10-17T10:28:55.130Z,22.80
2022-10-17T10:31:27.741Z,23.80
2022-10-17T10:33:56.864Z,23.20
2022-10-17T10:36:24.049Z,16.30
2022-10-17T10:38:58.318Z,19.00
2022-10-17T10:41:27.190Z,16.50
2022-10-17T10:43:55.472Z,20.10
2022-10-17T10:46:26.004Z,23.90
2022-10-17T10:49:01.003Z,29.30
2022-10-17T10:51:38.405Z,27.80
2022-10-17T10:54:10.162Z,28.20
2022-10-17T10:56:39.781Z,21.70
2022-10-17T10:59:19.864Z,27.60
2022-10-17T11:01:55.910Z,20.40
2022-10-17T11:04:46.793Z,22.40
2022-10-17T11:07:29.543Z,24.20
2022-10-17T11:09:55.939Z,56.20
2022-10-17T11:12:28.201Z,55.80
2022-10-17T11:15:01.769Z,39.90
2022-10-17T11:18:00.147Z,26.00
2022-10-17T11:20:58.377Z,23.70
2022-10-17T11:24:08.446Z,27.30
2022-10-17T11:26:42.764Z,20.60
2022-10-17T11:29:11.732Z,30.70
2022-10-17T11:31:44.501Z,49.90
2022-10-17T11:34:28.764Z,23.20
2022-10-17T11:37:03.794Z,29.60
2022-10-17T11:39:33.101Z,35.20
2022-10-17T11:42:06.425Z,21.60
2022-10-17T11:44:38.754Z,21.90
2022-10-17T11:47:26.996Z,21.50
2022-10-17T11:53:01.510Z,40.80
2022-10-17T11:55:30.042Z,39.30
2022-10-17T11:58:03.151Z,31.30
2022-10-17T12:00:47.553Z,25.40
2022-10-17T12:03:34.300Z,29.50
2022-10-17T12:06:20.001Z,34.70
2022-10-17T12:08:55.507Z,33.70
2022-10-17T12:11:42.697Z,21.00
2022-10-17T12:14:38.895Z,25.80
2022-10-17T12:17:20.303Z,27.10
2022-10-17T12:19:46.606Z,38.80
2022-10-17T12:22:28.870Z,41.10
2022-10-17T12:24:58.125Z,34.30
2022-10-17T12:27:45.636Z,24.20
2022-10-17T12:30:12.005Z,23.90
2022-10-17T12:33:05.743Z,42.40
2022-10-17T12:35:35.148Z,22.70
2022-10-17T12:38:09.542Z,28.50
2022-10-17T12:40:35.752Z,23.00
2022-10-17T12:43:27.772Z,21.80
2022-10-17T12:45:55.779Z,27.00
2022-10-17T12:48:38.602Z,17.80
2022-10-17T12:54:01.452Z,24.60
2022-10-17T12:56:39.283Z,21.30
2022-10-17T12:59:13.012Z,22.00
2022-10-17T13:01:42.981Z,27.20
2022-10-17T13:04:10.214Z,24.80
2022-10-17T13:06:44.319Z,23.00
2022-10-17T13:09:31.460Z,51.80
2022-10-17T13:12:04.923Z,21.70
2022-10-17T13:14:33.226Z,23.20
2022-10-17T13:17:05.197Z,17.90
2022-10-17T13:19:41.790Z,26.10
2022-10-17T13:22:23.405Z,25.00
2022-10-17T13:24:51.710Z,26.80
2022-10-17T13:27:28.831Z,27.80
2022-10-17T13:29:57.851Z,32.50
2022-10-17T13:32:27.176Z,28.70
2022-10-17T13:35:14.136Z,25.70
2022-10-17T13:37:43.077Z,25.20
2022-10-17T13:40:44.730Z,26.80
2022-10-17T13:43:19.925Z,25.80
2022-10-17T13:45:49.693Z,33.70
2022-10-17T13:48:27.728Z,24.20
2022-10-17T13:51:01.752Z,34.00
2022-10-17T13:53:33.411Z,32.90
2022-10-17T13:56:26.459Z,34.60
2022-10-17T13:58:52.143Z,25.90
2022-10-17T14:01:20.532Z,29.40
2022-10-17T14:03:50.173Z,25.60
2022-10-17T14:06:26.212Z,22.40
2022-10-17T14:09:04.658Z,23.00
2022-10-17T14:11:37.186Z,32.20
2022-10-17T14:14:07.848Z,28.90
2022-10-17T14:16:40.830Z,25.90
2022-10-17T14:19:39.723Z,31.60
2022-10-17T14:22:22.237Z,28.10
2022-10-17T14:24:52.481Z,28.50
2022-10-17T14:27:38.547Z,28.30
2022-10-17T14:33:26.363Z,29.30
2022-10-17T14:35:56.514Z,31.40
2022-10-17T14:38:24.421Z,28.90
2022-10-17T14:41:15.672Z,34.50
2022-10-17T14:44:05.803Z,34.60
2022-10-17T14:46:35.013Z,32.10
2022-10-17T14:49:15.014Z,34.70
2022-10-17T14:52:29.210Z,35.00
2022-10-17T14:54:57.785Z,36.20
2022-10-17T14:57:28.704Z,34.60
2022-10-17T14:59:56.527Z,36.50
2022-10-17T15:02:28.573Z,31.60
2022-10-17T15:04:55.352Z,35.70
2022-10-17T15:07:22.861Z,33.70
2022-10-17T15:09:50.891Z,39.00
2022-10-17T15:12:24.008Z,37.30
2022-10-17T15:14:51.046Z,34.70
2022-10-17T15:17:25.085Z,49.60
2022-10-17T15:19:51.875Z,38.80
2022-10-17T15:22:18.148Z,47.30
2022-10-17T15:24:45.584Z,54.90
2022-10-17T15:27:24.350Z,45.60
2022-10-17T15:29:52.170Z,52.80
2022-10-17T15:32:18.418Z,41.00
2022-10-17T15:34:44.771Z,46.40
2022-10-17T15:37:32.830Z,38.20
2022-10-17T15:39:59.480Z,47.40
2022-10-17T15:42:28.925Z,53.80
2022-10-17T15:44:56.455Z,49.40
2022-10-17T15:47:32.885Z,42.80
2022-10-17T15:50:00.636Z,52.00
2022-10-17T15:52:27.052Z,48.40
2022-10-17T15:54:54.080Z,55.90
2022-10-17T15:57:23.988Z,55.00
2022-10-17T15:59:52.347Z,54.90
2022-10-17T16:02:20.553Z,51.80
2022-10-17T16:04:48.522Z,50.50
2022-10-17T16:07:15.377Z,48.10
2022-10-17T16:09:41.665Z,42.50
2022-10-17T16:12:17.264Z,46.50
2022-10-17T16:14:43.850Z,52.60
2022-10-17T16:17:15.573Z,40.50
2022-10-17T16:19:42.555Z,35.40
2022-10-17T16:22:36.051Z,48.40
2022-10-17T16:25:09.445Z,49.40
2022-10-17T16:30:07.662Z,41.80
2022-10-17T16:32:33.932Z,61.80
2022-10-17T16:35:00.804Z,56.70
2022-10-17T16:37:27.174Z,46.20
2022-10-17T16:39:53.492Z,54.10
2022-10-17T16:42:20.551Z,60.40
2022-10-17T16:44:48.516Z,45.10
2022-10-17T16:47:16.633Z,64.10
2022-10-17T16:49:45.264Z,52.80
2022-10-17T16:52:12.406Z,45.40
2022-10-17T16:54:38.683Z,46.20
2022-10-17T16:57:04.933Z,52.40
2022-10-17T16:59:31.158Z,40.40
2022-10-17T17:01:57.399Z,45.00
2022-10-17T17:04:23.805Z,49.60
2022-10-17T17:06:50.110Z,47.00
2022-10-17T17:09:16.381Z,55.00
2022-10-17T17:11:42.618Z,57.10
2022-10-17T17:14:10.328Z,52.90
2022-10-17T17:16:36.563Z,51.60
2022-10-17T17:19:05.689Z,46.00
2022-10-17T17:21:33.894Z,54.40
2022-10-17T17:24:02.033Z,49.10
2022-10-17T17:26:31.162Z,57.30
2022-10-17T17:28:59.698Z,50.50
2022-10-17T17:31:29.368Z,46.30
2022-10-17T17:36:25.699Z,52.20
2022-10-17T17:38:54.862Z,53.50
2022-10-17T17:41:21.519Z,57.90
2022-10-17T17:43:48.503Z,53.30
2022-10-17T17:46:17.363Z,55.00
2022-10-17T17:48:45.330Z,60.00
2022-10-17T17:51:13.580Z,56.50
2022-10-17T17:53:40.425Z,56.30
2022-10-17T17:56:10.056Z,53.40
2022-10-17T17:58:36.713Z,58.90
2022-10-17T18:01:13.199Z,60.30
2022-10-17T18:03:41.279Z,56.30
2022-10-17T18:06:08.610Z,56.80
2022-10-17T18:08:35.427Z,53.20
2022-10-17T18:11:02.453Z,54.70
2022-10-17T18:13:29.347Z,51.70
2022-10-17T18:16:00.530Z,68.40
2022-10-17T18:18:28.744Z,52.50
2022-10-17T18:20:55.830Z,55.50
2022-10-17T18:23:23.015Z,67.10
2022-10-17T18:25:54.061Z,66.50
2022-10-17T18:28:20.383Z,53.80
2022-10-17T18:30:46.748Z,55.90
2022-10-17T18:33:12.975Z,74.20
2022-10-17T18:35:39.190Z,82.90
2022-10-17T18:38:05.431Z,63.30
2022-10-17T18:40:31.785Z,56.70
2022-10-17T18:42:58.009Z,71.40
2022-10-17T18:45:24.320Z,85.60
2022-10-17T18:47:52.998Z,71.60
2022-10-17T18:50:20.860Z,77.60
2022-10-17T18:52:48.110Z,64.90
2022-10-17T18:55:17.638Z,57.80
2022-10-17T18:57:43.882Z,53.70
2022-10-17T19:00:10.745Z,53.00
2022-10-17T19:02:38.086Z,64.00
2022-10-17T19:05:04.726Z,68.60
2022-10-17T19:07:31.243Z,82.60
2022-10-17T19:09:57.689Z,77.00
2022-10-17T19:12:23.919Z,61.60
2022-10-17T19:14:50.528Z,56.20
2022-10-17T19:17:16.776Z,55.20
2022-10-17T19:19:43.323Z,49.20
2022-10-17T19:22:09.606Z,55.00
2022-10-17T19:24:35.884Z,58.60
2022-10-17T19:27:03.299Z,57.00
2022-10-17T19:29:32.971Z,47.20
2022-10-17T19:32:00.317Z,53.10
2022-10-17T19:34:27.106Z,55.50
2022-10-17T19:36:55.006Z,53.50
2022-10-17T19:39:24.377Z,53.00
2022-10-17T19:41:50.676Z,64.40
2022-10-17T19:44:17.564Z,53.90
2022-10-17T19:46:46.026Z,50.90
2022-10-17T19:49:12.640Z,52.40
2022-10-17T19:51:39.305Z,71.70
2022-10-17T19:54:05.565Z,58.60
2022-10-17T19:56:36.819Z,59.60
2022-10-17T19:59:05.379Z,66.60
2022-10-17T20:01:34.584Z,53.70
2022-10-17T20:04:01.239Z,52.30
2022-10-17T20:06:27.687Z,55.60
2022-10-17T20:08:54.160Z,58.70
2022-10-17T20:11:26.140Z,44.50
2022-10-17T20:13:54.280Z,48.50
2022-10-17T20:16:23.905Z,43.10
2022-10-17T20:18:51.748Z,49.50
2022-10-17T20:21:26.396Z,46.80
2022-10-17T20:23:53.758Z,46.50
2022-10-17T20:26:37.750Z,47.40
2022-10-17T20:29:09.847Z,49.50
2022-10-17T20:31:36.513Z,46.40
2022-10-17T20:34:03.355Z,47.20
2022-10-17T20:36:29.983Z,52.50
2022-10-17T20:38:58.053Z,51.70
2022-10-17T20:41:26.126Z,54.40
2022-10-17T20:43:54.379Z,62.20
2022-10-17T20:46:35.815Z,54.10
2022-10-17T20:49:04.891Z,68.10
2022-10-17T20:51:31.624Z,52.10
2022-10-17T20:53:58.296Z,47.60
2022-10-17T20:56:28.666Z,52.50
2022-10-17T20:59:00.927Z,53.10
2022-10-17T21:01:29.128Z,63.10
2022-10-17T21:03:58.889Z,59.70
2022-10-17T21:06:27.060Z,56.10
2022-10-17T21:08:54.854Z,48.10
2022-10-17T21:11:23.844Z,48.50
2022-10-17T21:13:55.872Z,49.30
2022-10-17T21:16:22.292Z,43.00
2022-10-17T21:18:49.104Z,46.80
2022-10-17T21:21:18.577Z,52.40
2022-10-17T21:23:47.416Z,41.80
2022-10-17T21:26:15.369Z,35.00
2022-10-17T21:28:43.203Z,53.70
2022-10-17T21:31:17.352Z,42.10
2022-10-17T21:33:47.765Z,39.50
2022-10-17T21:36:17.996Z,39.30
2022-10-17T21:38:46.484Z,44.20
2022-10-17T21:41:14.575Z,49.70
2022-10-17T21:43:42.497Z,47.10
2022-10-17T21:46:15.340Z,39.00
2022-10-17T21:48:42.244Z,40.80
2022-10-17T21:51:11.912Z,46.00
2022-10-17T21:53:38.646Z,41.80
2022-10-17T21:56:08.514Z,45.40
2022-10-17T21:58:34.744Z,51.90
2022-10-17T22:01:18.881Z,45.20
2022-10-17T22:03:47.754Z,43.80
2022-10-17T22:09:05.202Z,41.70
2022-10-17T22:11:34.314Z,37.20
2022-10-17T22:14:11.192Z,44.50
2022-10-17T22:16:38.662Z,40.60
2022-10-17T22:19:06.839Z,42.50
2022-10-17T22:21:35.557Z,43.60
2022-10-17T22:24:05.350Z,49.90
2022-10-17T22:26:34.187Z,40.60
2022-10-17T22:29:01.310Z,47.40
2022-10-17T22:31:27.699Z,40.30
2022-10-17T22:33:54.814Z,39.90
2022-10-17T22:36:21.072Z,34.10
2022-10-17T22:38:47.660Z,36.80
2022-10-17T22:41:13.911Z,37.30
2022-10-17T22:43:40.157Z,43.00
2022-10-17T22:46:06.984Z,40.60
2022-10-17T22:48:34.175Z,47.40
2022-10-17T22:51:01.857Z,40.80
2022-10-17T22:53:29.067Z,34.70
2022-10-17T22:56:00.701Z,41.70
2022-10-17T22:58:28.871Z,46.40
2022-10-17T23:00:55.713Z,36.20
2022-10-17T23:03:23.494Z,37.40
2022-10-17T23:05:50.657Z,42.50
2022-10-17T23:08:17.572Z,38.70
2022-10-17T23:10:45.471Z,37.90
2022-10-17T23:13:12.095Z,44.40
2022-10-17T23:15:38.351Z,44.60
2022-10-17T23:18:05.049Z,44.80
2022-10-17T23:20:31.889Z,37.80
2022-10-17T23:22:58.561Z,41.90
2022-10-17T23:25:26.108Z,35.80
2022-10-17T23:27:52.384Z,41.50
2022-10-17T23:30:19.010Z,39.30
2022-10-17T23:32:45.323Z,44.80
2022-10-17T23:35:11.569Z,41.60
2022-10-17T23:37:37.861Z,42.30
2022-10-17T23:40:05.433Z,45.20
2022-10-17T23:42:32.030Z,45.10
2022-10-17T23:44:58.243Z,44.50
2022-10-17T23:47:24.505Z,48.20
2022-10-17T23:49:50.804Z,39.00
2022-10-17T23:52:17.038Z,46.00
2022-10-17T23:54:43.498Z,35.70
2022-10-17T23:57:09.710Z,41.40
2022-10-17T23:59:36.250Z,49.30
